createdAt,value
2018-02-02T00:04:39.663Z,993.70
2018-02-02T00:09:38.878Z,993.75
2018-02-02T00:14:37.915Z,993.59
2018-02-02T00:19:38.760Z,993.61
2018-02-02T00:24:32.953Z,993.53
2018-02-02T00:29:33.636Z,993.62
2018-02-02T00:34:33.276Z,993.64
2018-02-02T00:39:28.643Z,993.65
2018-02-02T00:44:25.203Z,993.57
2018-02-02T00:49:24.656Z,993.55
2018-02-02T00:54:23.882Z,993.32
2018-02-02T00:59:23.753Z,993.45
2018-02-02T01:04:20.008Z,993.51
2018-02-02T01:09:20.486Z,993.37
2018-02-02T01:14:19.230Z,993.37
2018-02-02T01:19:17.849Z,993.28
2018-02-02T01:24:12.851Z,993.23
2018-02-02T01:29:08.740Z,993.19
2018-02-02T01:34:08.380Z,993.24
2018-02-02T01:39:05.466Z,993.17
2018-02-02T01:44:05.401Z,993.19
2018-02-02T01:49:01.343Z,993.26
2018-02-02T01:54:01.923Z,993.26
2018-02-02T01:59:01.828Z,993.17
2018-02-02T02:04:01.403Z,993.13
2018-02-02T02:08:56.977Z,993.03
2018-02-02T02:13:52.575Z,992.99
2018-02-02T02:18:48.510Z,992.88
2018-02-02T02:23:49.319Z,992.83
2018-02-02T02:28:48.430Z,992.81
2018-02-02T02:33:43.149Z,992.80
2018-02-02T02:38:42.718Z,992.73
2018-02-02T02:43:37.940Z,992.68
2018-02-02T02:48:37.702Z,992.71
2018-02-02T02:53:37.029Z,992.72
2018-02-02T02:58:35.407Z,992.67
2018-02-02T03:03:30.024Z,992.64
2018-02-02T03:08:29.918Z,992.66
2018-02-02T03:13:24.841Z,992.63
2018-02-02T03:18:21.573Z,992.58
2018-02-02T03:23:21.008Z,992.55
2018-02-02T03:28:20.766Z,992.50
2018-02-02T03:33:21.046Z,992.45
2018-02-02T03:38:20.631Z,992.54
2018-02-02T03:43:15.291Z,992.55
2018-02-02T03:48:16.896Z,992.53
2018-02-02T03:53:16.138Z,992.60
2018-02-02T03:58:11.854Z,992.54
2018-02-02T04:03:07.318Z,992.52
2018-02-02T04:08:07.620Z,992.62
2018-02-02T04:13:02.701Z,992.60
2018-02-02T04:17:58.180Z,992.67
2018-02-02T04:22:57.708Z,992.60
2018-02-02T04:27:54.589Z,992.57
2018-02-02T04:32:49.932Z,992.61
2018-02-02T04:37:45.666Z,992.61
2018-02-02T04:42:41.513Z,992.61
2018-02-02T04:47:37.123Z,992.56
2018-02-02T04:52:33.125Z,992.51
2018-02-02T04:57:32.897Z,992.53
2018-02-02T05:02:31.825Z,992.54
2018-02-02T05:07:30.810Z,992.59
2018-02-02T05:12:29.853Z,992.55
2018-02-02T05:17:28.454Z,992.53
2018-02-02T05:22:27.370Z,992.57
2018-02-02T05:27:26.186Z,992.60
2018-02-02T05:32:24.506Z,992.55
2018-02-02T05:37:24.354Z,992.60
2018-02-02T05:42:19.870Z,992.68
2018-02-02T05:47:19.929Z,992.64
2018-02-02T05:52:15.368Z,992.57
2018-02-02T05:57:11.708Z,992.55
2018-02-02T06:02:10.891Z,992.64
2018-02-02T06:07:06.619Z,992.62
2018-02-02T06:12:03.339Z,992.59
2018-02-02T06:16:58.916Z,992.49
2018-02-02T06:21:54.669Z,992.41
2018-02-02T06:26:55.024Z,992.43
2018-02-02T06:31:54.754Z,992.40
2018-02-02T06:36:49.392Z,992.47
2018-02-02T06:41:49.472Z,992.46
2018-02-02T06:46:44.504Z,992.44
2018-02-02T06:51:40.349Z,992.48
2018-02-02T06:56:39.877Z,992.57
2018-02-02T07:01:38.663Z,992.58
2018-02-02T07:06:33.565Z,992.68
2018-02-02T07:11:30.423Z,992.61
2018-02-02T07:16:30.291Z,992.59
2018-02-02T07:21:26.160Z,992.70
2018-02-02T07:26:26.674Z,992.71
2018-02-02T07:31:25.247Z,992.78
2018-02-02T07:36:24.136Z,992.87
2018-02-02T07:41:19.085Z,992.88
2018-02-02T07:46:15.919Z,992.96
2018-02-02T07:56:16.793Z,993.01
2018-02-02T08:01:15.404Z,993.08
2018-02-02T08:06:10.481Z,993.11
2018-02-02T08:16:16.675Z,993.22
2018-02-02T08:21:11.462Z,993.31
2018-02-02T08:26:12.270Z,993.40
2018-02-02T08:31:08.228Z,993.50
2018-02-02T08:36:03.627Z,993.49
2018-02-02T08:41:00.643Z,993.53
2018-02-02T08:46:01.042Z,993.60
2018-02-02T08:51:00.769Z,993.56
2018-02-02T08:55:56.712Z,993.58
2018-02-02T09:00:56.302Z,993.56
2018-02-02T09:05:51.466Z,993.63
2018-02-02T09:10:47.144Z,993.66
2018-02-02T09:15:47.078Z,993.71
2018-02-02T09:20:46.611Z,993.71
2018-02-02T09:25:41.956Z,993.79
2018-02-02T09:30:42.760Z,993.84
2018-02-02T09:35:42.570Z,993.90
2018-02-02T09:40:43.190Z,993.91
2018-02-02T09:45:37.983Z,994.01
2018-02-02T09:50:38.251Z,994.03
2018-02-02T09:55:37.265Z,993.98
2018-02-02T10:00:37.811Z,994.16
2018-02-02T10:05:37.791Z,994.16
2018-02-02T10:10:37.041Z,994.25
2018-02-02T10:15:41.857Z,994.26
2018-02-02T10:20:42.008Z,994.42
2018-02-02T10:25:40.682Z,994.37
2018-02-02T10:30:40.726Z,994.37
2018-02-02T10:35:40.787Z,994.39
2018-02-02T10:40:40.556Z,994.43
2018-02-02T10:45:39.371Z,994.60
2018-02-02T10:50:40.490Z,994.54
2018-02-02T10:55:41.380Z,994.59
2018-02-02T11:00:40.430Z,994.56
2018-02-02T11:05:39.396Z,994.51
2018-02-02T11:15:42.421Z,994.60
2018-02-02T11:20:37.559Z,994.59
2018-02-02T11:25:37.296Z,994.63
2018-02-02T11:30:34.446Z,994.62
2018-02-02T11:35:34.545Z,994.61
2018-02-02T11:40:37.232Z,994.62
2018-02-02T11:45:35.638Z,994.69
2018-02-02T11:50:34.608Z,994.74
2018-02-02T11:55:33.670Z,994.73
2018-02-02T12:00:36.389Z,994.81
2018-02-02T12:05:38.138Z,994.83
2018-02-02T12:15:39.125Z,994.98
2018-02-02T12:20:42.226Z,994.94
2018-02-02T12:25:39.541Z,994.98
2018-02-02T12:30:41.157Z,995.02
2018-02-02T12:35:36.946Z,995.02
2018-02-02T12:40:37.639Z,994.98
2018-02-02T12:45:36.563Z,995.03
2018-02-02T12:50:38.048Z,995.07
2018-02-02T12:55:34.775Z,995.03
2018-02-02T13:00:35.042Z,995.10
2018-02-02T13:05:30.098Z,995.12
2018-02-02T13:10:29.231Z,995.15
2018-02-02T13:15:29.716Z,995.20
2018-02-02T13:20:29.580Z,995.21
2018-02-02T13:25:24.327Z,995.25
2018-02-02T13:30:25.015Z,995.25
2018-02-02T13:35:20.559Z,995.28
2018-02-02T13:40:21.234Z,995.35
2018-02-02T13:45:17.924Z,995.37
2018-02-02T13:50:17.218Z,995.46
2018-02-02T13:55:12.146Z,995.47
2018-02-02T14:00:08.827Z,995.53
2018-02-02T14:05:08.186Z,995.58
2018-02-02T14:10:05.684Z,995.61
2018-02-02T14:15:04.481Z,995.61
2018-02-02T14:20:01.599Z,995.69
2018-02-02T14:25:00.676Z,995.81
2018-02-02T14:30:00.693Z,995.94
2018-02-02T14:34:57.986Z,996.06
2018-02-02T14:39:57.000Z,996.09
2018-02-02T14:44:55.935Z,996.31
2018-02-02T14:49:54.419Z,996.34
2018-02-02T14:54:49.662Z,996.31
2018-02-02T14:59:48.255Z,996.39
2018-02-02T15:04:43.511Z,996.35
2018-02-02T15:09:45.017Z,996.33
2018-02-02T15:14:39.416Z,996.40
2018-02-02T15:19:38.997Z,996.40
2018-02-02T15:24:38.830Z,996.54
2018-02-02T15:29:37.680Z,996.51
2018-02-02T15:34:37.462Z,996.57
2018-02-02T15:39:38.197Z,996.57
2018-02-02T15:44:34.194Z,996.70
2018-02-02T15:49:35.448Z,996.60
2018-02-02T15:54:34.458Z,996.66
2018-02-02T15:59:33.155Z,996.65
2018-02-02T16:04:30.119Z,996.68
2018-02-02T16:09:29.126Z,996.87
2018-02-02T16:14:27.870Z,996.92
2018-02-02T16:19:22.574Z,996.94
2018-02-02T16:24:23.132Z,997.02
2018-02-02T16:29:22.512Z,997.05
2018-02-02T16:34:22.792Z,997.15
2018-02-02T16:39:23.201Z,997.18
2018-02-02T16:44:22.647Z,997.39
2018-02-02T16:54:23.691Z,997.51
2018-02-02T16:59:23.372Z,997.59
2018-02-02T17:04:23.098Z,997.66
2018-02-02T17:09:22.378Z,997.74
2018-02-02T17:14:23.585Z,997.85
2018-02-02T17:19:22.769Z,997.99
2018-02-02T17:24:22.320Z,998.00
2018-02-02T17:29:21.185Z,998.12
2018-02-02T17:34:20.908Z,998.09
2018-02-02T17:39:20.011Z,998.12
2018-02-02T17:44:19.899Z,998.23
2018-02-02T17:49:18.427Z,998.22
2018-02-02T17:54:18.992Z,998.25
2018-02-02T17:59:14.678Z,998.27
2018-02-02T18:04:14.112Z,998.37
2018-02-02T18:09:13.526Z,998.41
2018-02-02T18:14:09.103Z,998.43
2018-02-02T18:19:08.677Z,998.42
2018-02-02T18:24:07.740Z,998.50
2018-02-02T18:29:07.684Z,998.57
2018-02-02T18:34:02.391Z,998.50
2018-02-02T18:38:58.109Z,998.59
2018-02-02T18:43:57.931Z,998.66
2018-02-02T18:48:53.849Z,998.72
2018-02-02T18:53:55.095Z,998.72
2018-02-02T18:58:55.489Z,998.74
2018-02-02T19:03:51.445Z,998.86
2018-02-02T19:08:48.138Z,998.88
2018-02-02T19:13:49.528Z,998.84
2018-02-02T19:18:45.509Z,998.93
2018-02-02T19:23:44.846Z,999.01
2018-02-02T19:28:40.890Z,999.06
2018-02-02T19:33:41.210Z,999.11
2018-02-02T19:38:36.920Z,999.24
2018-02-02T19:43:33.623Z,999.27
2018-02-02T19:48:33.119Z,999.38
2018-02-02T19:53:32.122Z,999.42
2018-02-02T19:58:32.100Z,999.54
2018-02-02T20:03:30.653Z,999.54
2018-02-02T20:08:25.697Z,999.61
2018-02-02T20:13:22.382Z,999.62
2018-02-02T20:18:19.186Z,999.64
2018-02-02T20:23:17.010Z,999.76
2018-02-02T20:28:12.969Z,999.81
2018-02-02T20:33:12.343Z,999.74
2018-02-02T20:38:07.187Z,999.84
2018-02-02T20:43:02.932Z,999.80
2018-02-02T20:48:02.524Z,999.85
2018-02-02T20:53:02.452Z,999.86
2018-02-02T20:58:02.160Z,999.95
2018-02-02T21:03:02.917Z,999.92
2018-02-02T21:07:59.078Z,999.89
2018-02-02T21:12:59.628Z,999.87
2018-02-02T21:17:59.319Z,999.87
2018-02-02T21:28:00.202Z,999.95
2018-02-02T21:33:00.890Z,999.99
2018-02-02T21:38:00.836Z,1000.03
2018-02-02T21:43:00.380Z,1000.21
2018-02-02T21:47:56.282Z,1000.19
2018-02-02T21:52:56.940Z,1000.16
2018-02-02T21:57:52.832Z,1000.21
2018-02-02T22:02:54.423Z,1000.23
2018-02-02T22:07:54.328Z,1000.31
2018-02-02T22:12:53.055Z,1000.31
2018-02-02T22:22:53.473Z,1000.31
2018-02-02T22:27:52.377Z,1000.34
2018-02-02T22:32:49.661Z,1000.38
2018-02-02T22:37:45.001Z,1000.48
2018-02-02T22:42:40.574Z,1000.45
2018-02-02T22:47:40.372Z,1000.46
2018-02-02T22:52:36.311Z,1000.42
2018-02-02T22:57:31.625Z,1000.46
2018-02-02T23:02:27.281Z,1000.50
2018-02-02T23:07:23.553Z,1000.50
2018-02-02T23:12:19.623Z,1000.50
2018-02-02T23:17:16.759Z,1000.44
2018-02-02T23:22:18.452Z,1000.56
2018-02-02T23:27:14.251Z,1000.57
2018-02-02T23:32:14.556Z,1000.56
2018-02-02T23:37:10.451Z,1000.56
2018-02-02T23:42:07.050Z,1000.59
2018-02-02T23:47:06.555Z,1000.51
2018-02-02T23:52:06.453Z,1000.51
2018-02-02T23:57:03.316Z,1000.63
